Time;durP1;ratioP1;P1;durP2;ratioP2;P2;SDS_P1;SDS_P2;PMS_P1;PMS_P2;Temp;Humidity;BMP_temperature;BMP_pressure;BME280_temperature;BME280_humidity;BME280_pressure;Samples;Min_cycle;Max_cycle;Signal;HPM_P1;HPM_P2
2021/07/16 00:00:19;;;;;;;7.87;4.80;;;18.40;88.20;;;;;;5058238;28;20509;-46
2021/07/16 00:02:48;;;;;;;6.70;5.50;;;18.40;88.20;;;;;;5058427;28;20458;-46
2021/07/16 00:05:15;;;;;;;7.33;5.20;;;18.40;88.20;;;;;;5088139;28;20489;-45
2021/07/16 00:07:42;;;;;;;6.13;5.63;;;18.40;88.40;;;;;;5062861;28;20468;-46
2021/07/16 00:10:13;;;;;;;6.50;5.80;;;18.40;88.40;;;;;;5059326;28;20457;-45
2021/07/16 00:12:40;;;;;;;5.77;5.17;;;18.40;88.40;;;;;;5057280;28;20470;-46
2021/07/16 00:15:09;;;;;;;5.30;4.80;;;18.40;88.40;;;;;;5059143;28;20463;-46
2021/07/16 00:17:36;;;;;;;6.03;5.40;;;18.40;88.40;;;;;;5060455;28;20474;-46
2021/07/16 00:20:04;;;;;;;6.87;5.60;;;18.40;88.40;;;;;;5058322;28;20583;-46
2021/07/16 00:22:31;;;;;;;5.80;5.20;;;18.40;88.50;;;;;;5056927;28;20454;-45
2021/07/16 00:24:58;;;;;;;8.23;5.23;;;18.40;88.50;;;;;;5057137;28;20465;-45
2021/07/16 00:27:24;;;;;;;5.33;4.83;;;18.40;88.40;;;;;;5055145;28;20462;-46
2021/07/16 00:29:51;;;;;;;5.57;4.80;;;18.40;88.40;;;;;;5055281;28;20471;-45
2021/07/16 00:32:18;;;;;;;6.57;5.30;;;18.40;88.20;;;;;;5059901;28;20467;-45
2021/07/16 00:34:45;;;;;;;5.80;4.90;;;18.40;88.30;;;;;;5060996;28;20451;-46
2021/07/16 00:37:11;;;;;;;5.13;4.60;;;18.30;88.40;;;;;;5084324;28;20506;-45
2021/07/16 00:39:38;;;;;;;5.17;4.67;;;18.30;88.40;;;;;;5086618;28;20492;-46
2021/07/16 00:42:06;;;;;;;5.43;4.53;;;18.30;88.50;;;;;;5060003;28;20458;-45
2021/07/16 00:44:35;;;;;;;5.30;4.80;;;18.30;88.50;;;;;;5063021;28;20790;-46
2021/07/16 00:47:05;;;;;;;7.43;5.00;;;18.30;88.50;;;;;;5062324;28;20458;-45
2021/07/16 00:49:33;;;;;;;7.00;4.80;;;18.30;88.40;;;;;;5064610;28;20459;-45
2021/07/16 00:52:00;;;;;;;5.50;4.97;;;18.30;88.50;;;;;;5069777;28;20458;-45
2021/07/16 00:54:27;;;;;;;8.00;5.33;;;18.20;88.50;;;;;;5063493;28;20877;-45
2021/07/16 00:56:55;;;;;;;9.97;5.07;;;18.20;88.60;;;;;;5060632;28;20476;-45
2021/07/16 00:59:24;;;;;;;5.50;5.00;;;18.20;88.60;;;;;;5090121;27;20481;-47
2021/07/16 01:01:53;;;;;;;5.37;4.77;;;18.20;88.60;;;;;;5061461;28;20465;-47
2021/07/16 01:04:21;;;;;;;8.13;5.27;;;18.20;88.50;;;;;;5063207;28;20441;-47
2021/07/16 01:06:48;;;;;;;10.27;5.10;;;18.20;88.60;;;;;;5063059;28;20447;-47
2021/07/16 01:09:14;;;;;;;7.27;5.30;;;18.20;88.60;;;;;;5062998;28;20480;-47
2021/07/16 01:11:44;;;;;;;4.90;4.40;;;18.20;88.60;;;;;;5063543;28;20462;-47
2021/07/16 01:14:12;;;;;;;6.03;4.87;;;18.20;88.60;;;;;;5085505;28;20548;-47
2021/07/16 01:16:39;;;;;;;6.03;4.93;;;18.20;88.50;;;;;;5064341;28;21005;-47
2021/07/16 01:19:10;;;;;;;7.63;5.70;;;18.20;88.50;;;;;;5063866;28;20489;-47
2021/07/16 01:21:38;;;;;;;6.23;5.73;;;18.20;88.50;;;;;;5063802;28;20456;-47
2021/07/16 01:24:07;;;;;;;8.23;6.20;;;18.20;88.60;;;;;;5060464;28;20469;-47
2021/07/16 01:26:36;;;;;;;8.17;5.90;;;18.10;88.70;;;;;;5093021;28;20450;-47
2021/07/16 01:29:09;;;;;;;8.60;5.97;;;18.20;88.70;;;;;;5059666;28;20516;-48
2021/07/16 01:31:36;;;;;;;9.33;5.37;;;18.20;88.50;;;;;;5063738;28;20496;-47
2021/07/16 01:34:03;;;;;;;8.20;6.23;;;18.20;88.50;;;;;;5061833;28;20458;-47
2021/07/16 01:36:30;;;;;;;6.37;5.30;;;18.10;88.60;;;;;;5061029;28;20832;-47
2021/07/16 01:38:57;;;;;;;7.40;6.17;;;18.10;88.60;;;;;;5090485;27;20507;-47
2021/07/16 01:41:23;;;;;;;8.47;6.30;;;18.10;88.70;;;;;;5062515;28;20468;-47
2021/07/16 01:43:50;;;;;;;7.90;5.80;;;18.10;88.80;;;;;;5059846;28;20457;-47
2021/07/16 01:46:17;;;;;;;9.80;7.37;;;18.10;88.80;;;;;;5062801;28;20459;-47
2021/07/16 01:48:43;;;;;;;12.70;7.97;;;18.10;88.70;;;;;;5060695;28;20515;-47
2021/07/16 01:51:10;;;;;;;14.50;7.80;;;18.10;88.70;;;;;;5062421;28;21156;-47
2021/07/16 01:53:38;;;;;;;10.63;7.53;;;18.10;88.70;;;;;;5059801;28;20454;-47
2021/07/16 01:56:05;;;;;;;11.60;7.50;;;18.00;88.80;;;;;;5060612;28;20449;-47
2021/07/16 01:58:31;;;;;;;12.00;8.00;;;18.00;88.90;;;;;;5061679;28;20446;-47
2021/07/16 02:00:59;;;;;;;11.93;7.37;;;18.00;88.90;;;;;;5065407;28;20453;-47
2021/07/16 02:03:26;;;;;;;11.80;7.53;;;18.00;88.90;;;;;;5058811;28;20454;-47
2021/07/16 02:05:53;;;;;;;11.40;8.97;;;18.00;89.00;;;;;;5056705;28;20458;-48
2021/07/16 02:08:22;;;;;;;11.37;8.03;;;18.00;89.00;;;;;;5062495;28;20461;-47
2021/07/16 02:10:54;;;;;;;13.63;8.77;;;18.00;89.10;;;;;;5061615;28;20461;-47
2021/07/16 02:13:23;;;;;;;9.97;8.40;;;18.00;89.10;;;;;;5058912;28;20481;-47
2021/07/16 02:15:51;;;;;;;17.83;8.93;;;18.00;89.20;;;;;;5058976;28;20823;-47
2021/07/16 02:18:19;;;;;;;14.60;9.73;;;18.00;89.30;;;;;;5062385;28;20478;-47
2021/07/16 02:20:46;;;;;;;12.60;10.10;;;18.10;89.40;;;;;;5058999;28;20497;-47
2021/07/16 02:23:17;;;;;;;13.50;10.93;;;18.10;89.60;;;;;;5062087;28;21006;-47
2021/07/16 02:25:44;;;;;;;13.47;9.57;;;18.10;89.60;;;;;;5057108;28;20632;-47
2021/07/16 02:28:15;;;;;;;8.17;7.13;;;18.10;89.80;;;;;;5057836;28;20450;-47
2021/07/16 02:30:42;;;;;;;10.13;7.13;;;18.20;89.80;;;;;;5058608;28;20822;-47
2021/07/16 02:33:09;;;;;;;9.97;8.10;;;18.20;89.60;;;;;;5059340;28;20454;-47
2021/07/16 02:35:36;;;;;;;12.77;7.80;;;18.30;89.40;;;;;;5060108;28;20457;-45
2021/07/16 02:38:04;;;;;;;8.73;7.77;;;18.20;89.60;;;;;;5058532;28;20460;-45
2021/07/16 02:40:32;;;;;;;12.80;8.73;;;18.20;89.80;;;;;;5062659;28;20493;-45
2021/07/16 02:43:00;;;;;;;14.77;9.83;;;18.20;89.80;;;;;;5056450;28;20457;-45
2021/07/16 02:45:27;;;;;;;11.03;8.77;;;18.20;89.80;;;;;;5061325;28;20462;-45
2021/07/16 02:47:54;;;;;;;15.20;9.13;;;18.20;89.80;;;;;;5057435;28;20446;-44
2021/07/16 02:50:31;;;;;;;14.17;8.77;;;18.30;89.80;;;;;;5066345;28;20465;-45
2021/07/16 02:53:04;;;;;;;14.27;8.53;;;18.30;89.80;;;;;;5063101;28;20552;-46
2021/07/16 02:55:32;;;;;;;12.10;9.00;;;18.30;89.80;;;;;;5057609;28;20462;-46
2021/07/16 02:57:59;;;;;;;10.83;7.80;;;18.30;89.80;;;;;;5057603;28;20466;-46
2021/07/16 03:00:29;;;;;;;12.57;9.70;;;18.30;89.80;;;;;;5058014;28;20485;-45
2021/07/16 03:02:57;;;;;;;12.97;9.33;;;18.40;89.80;;;;;;5060703;28;20443;-46
2021/07/16 03:05:29;;;;;;;12.90;8.60;;;18.40;89.80;;;;;;5058200;28;20538;-44
2021/07/16 03:07:59;;;;;;;9.73;8.40;;;18.40;89.80;;;;;;5058304;28;20442;-45
2021/07/16 03:10:39;;;;;;;11.13;8.10;;;18.50;89.80;;;;;;5058578;28;20473;-46
2021/07/16 03:13:10;;;;;;;14.23;8.13;;;18.50;89.80;;;;;;5059650;28;20473;-46
2021/07/16 03:15:37;;;;;;;10.43;7.73;;;18.50;89.80;;;;;;5058346;28;20939;-45
2021/07/16 03:18:05;;;;;;;10.40;8.00;;;18.50;89.80;;;;;;5090270;28;21050;-45
2021/07/16 03:20:35;;;;;;;8.33;6.60;;;18.50;89.80;;;;;;5058387;28;20482;-46
2021/07/16 03:23:02;;;;;;;9.60;8.03;;;18.60;89.80;;;;;;5089567;27;20457;-47
2021/07/16 03:25:29;;;;;;;13.67;9.13;;;18.60;89.80;;;;;;5058935;28;20454;-46
2021/07/16 03:27:56;;;;;;;12.50;8.83;;;18.60;89.80;;;;;;5060122;28;20453;-46
2021/07/16 03:30:29;;;;;;;10.43;8.40;;;18.60;89.80;;;;;;5062320;28;20826;-46
2021/07/16 03:32:56;;;;;;;11.40;8.60;;;18.50;89.80;;;;;;5062142;28;20466;-47
2021/07/16 03:35:24;;;;;;;11.77;8.47;;;18.50;89.80;;;;;;5063048;28;20514;-47
2021/07/16 03:37:52;;;;;;;9.07;7.67;;;18.50;89.80;;;;;;5057399;28;20971;-47
2021/07/16 03:40:27;;;;;;;12.83;8.20;;;18.50;89.80;;;;;;5058088;28;20490;-46
2021/07/16 03:42:54;;;;;;;12.33;8.40;;;18.60;89.80;;;;;;5058975;28;20459;-46
2021/07/16 03:45:21;;;;;;;10.30;8.67;;;18.60;89.80;;;;;;5058324;28;20453;-46
2021/07/16 03:47:48;;;;;;;10.83;9.27;;;18.50;89.80;;;;;;5087184;28;20466;-47
2021/07/16 03:50:20;;;;;;;12.37;8.93;;;18.50;89.80;;;;;;5060394;28;20466;-47
2021/07/16 03:52:48;;;;;;;10.13;8.23;;;18.50;89.80;;;;;;5056795;28;20454;-47
2021/07/16 03:55:15;;;;;;;10.60;8.80;;;18.50;89.80;;;;;;5085719;28;20455;-47
2021/07/16 03:57:44;;;;;;;12.53;9.83;;;18.60;89.80;;;;;;5055207;28;22067;-47
2021/07/16 04:00:12;;;;;;;9.70;8.50;;;18.60;89.80;;;;;;5056363;28;20850;-47
2021/07/16 04:02:40;;;;;;;11.50;9.10;;;18.60;89.80;;;;;;5058540;28;20462;-47
2021/07/16 04:05:07;;;;;;;11.87;9.10;;;18.70;89.80;;;;;;5056480;28;20455;-47
2021/07/16 04:07:35;;;;;;;10.10;8.90;;;18.70;89.80;;;;;;5054421;28;21082;-47
2021/07/16 04:10:03;;;;;;;24.30;9.13;;;18.70;89.80;;;;;;5052762;28;20454;-47
2021/07/16 04:12:29;;;;;;;12.00;9.37;;;18.60;89.80;;;;;;5057990;28;20467;-47
2021/07/16 04:14:56;;;;;;;12.10;9.37;;;18.60;89.80;;;;;;5053222;28;20789;-47
2021/07/16 04:17:25;;;;;;;10.93;9.20;;;18.60;89.80;;;;;;5059419;28;20464;-46
2021/07/16 04:19:53;;;;;;;12.07;8.20;;;18.60;89.80;;;;;;5061954;28;20478;-47
2021/07/16 04:22:23;;;;;;;10.40;8.47;;;18.60;89.80;;;;;;5057900;28;20828;-46
2021/07/16 04:24:51;;;;;;;13.50;9.30;;;18.60;89.80;;;;;;5061836;28;20457;-47
2021/07/16 04:27:19;;;;;;;11.93;8.17;;;18.70;89.80;;;;;;5064675;28;20454;-47
2021/07/16 04:29:46;;;;;;;12.53;9.07;;;18.60;89.80;;;;;;5066473;28;20459;-47
2021/07/16 04:32:14;;;;;;;11.00;8.50;;;18.70;89.80;;;;;;5091646;27;20465;-47
2021/07/16 04:34:41;;;;;;;11.87;9.13;;;18.70;89.80;;;;;;5063133;28;20469;-47
2021/07/16 04:37:09;;;;;;;10.63;9.53;;;18.70;89.80;;;;;;5062463;28;20462;-47
2021/07/16 04:39:36;;;;;;;10.80;8.60;;;18.70;89.80;;;;;;5067159;28;20490;-47
2021/07/16 04:42:04;;;;;;;11.70;9.00;;;18.70;89.80;;;;;;5062361;28;20465;-47
2021/07/16 04:44:31;;;;;;;10.97;8.77;;;18.70;89.80;;;;;;5061904;28;20481;-47
2021/07/16 04:46:58;;;;;;;12.70;9.03;;;18.70;89.80;;;;;;5058541;28;21018;-47
2021/07/16 04:49:25;;;;;;;10.47;8.97;;;18.70;89.80;;;;;;5061243;28;20457;-47
2021/07/16 04:51:52;;;;;;;10.57;8.80;;;18.80;89.80;;;;;;5061355;28;20446;-47
2021/07/16 04:54:21;;;;;;;10.10;8.60;;;18.80;89.80;;;;;;5066613;28;20454;-47
2021/07/16 04:56:48;;;;;;;10.40;8.70;;;18.80;89.80;;;;;;5090380;28;20450;-47
2021/07/16 04:59:17;;;;;;;14.00;9.63;;;18.90;89.80;;;;;;5058256;28;20901;-47
2021/07/16 05:01:44;;;;;;;12.70;9.80;;;18.90;89.80;;;;;;5063362;28;20465;-47
2021/07/16 05:04:12;;;;;;;11.73;9.23;;;18.90;89.80;;;;;;5062527;28;20959;-47
2021/07/16 05:06:38;;;;;;;17.53;12.60;;;19.00;89.80;;;;;;5061624;28;20453;-47
2021/07/16 05:09:05;;;;;;;14.57;12.70;;;19.00;89.80;;;;;;5060128;28;20466;-47
2021/07/16 05:11:32;;;;;;;15.77;13.30;;;19.00;89.80;;;;;;5061570;28;20461;-47
2021/07/16 05:14:02;;;;;;;17.27;12.40;;;19.00;89.80;;;;;;5057206;28;20947;-47
2021/07/16 05:16:29;;;;;;;16.87;12.67;;;19.10;89.80;;;;;;5059598;28;20466;-47
2021/07/16 05:18:56;;;;;;;13.53;12.13;;;19.10;89.80;;;;;;5089154;28;20517;-47
2021/07/16 05:21:23;;;;;;;17.93;14.53;;;19.10;89.80;;;;;;5075744;28;20898;-47
2021/07/16 05:23:50;;;;;;;15.73;12.60;;;19.10;89.80;;;;;;5060285;28;20476;-47
2021/07/16 05:26:16;;;;;;;16.30;12.50;;;19.20;89.80;;;;;;5059002;28;20455;-46
2021/07/16 05:28:45;;;;;;;17.80;12.00;;;19.20;89.80;;;;;;5061033;28;20453;-47
2021/07/16 05:31:12;;;;;;;12.53;10.50;;;19.20;89.80;;;;;;5063942;28;20462;-47
2021/07/16 05:33:38;;;;;;;12.37;10.27;;;19.20;89.80;;;;;;5060244;28;20473;-46
2021/07/16 05:36:06;;;;;;;15.83;11.53;;;19.30;89.80;;;;;;5057833;28;20846;-47
2021/07/16 05:38:34;;;;;;;13.33;11.50;;;19.30;89.80;;;;;;5061895;28;20998;-47
2021/07/16 05:41:07;;;;;;;15.00;12.00;;;19.30;89.80;;;;;;5064968;28;20572;-47
2021/07/16 05:43:35;;;;;;;18.37;12.63;;;19.30;89.80;;;;;;5091173;28;20457;-47
2021/07/16 05:46:08;;;;;;;17.97;13.10;;;19.30;89.80;;;;;;5059348;28;20465;-47
2021/07/16 05:48:36;;;;;;;17.63;13.73;;;19.40;89.80;;;;;;5061157;28;20457;-47
2021/07/16 05:51:03;;;;;;;18.97;15.27;;;19.40;89.80;;;;;;5056504;28;20457;-47
2021/07/16 05:53:32;;;;;;;18.30;14.80;;;19.40;89.80;;;;;;5062788;28;20461;-47
2021/07/16 05:56:01;;;;;;;20.17;15.00;;;19.40;89.80;;;;;;5062536;28;20458;-47
2021/07/16 05:58:28;;;;;;;22.93;17.37;;;19.40;89.80;;;;;;5060509;28;20963;-47
2021/07/16 06:00:57;;;;;;;21.17;15.30;;;19.50;89.80;;;;;;5059310;28;20990;-47
2021/07/16 06:03:24;;;;;;;25.47;17.07;;;19.50;89.80;;;;;;5064750;28;20462;-47
2021/07/16 06:05:51;;;;;;;20.33;17.30;;;19.60;89.80;;;;;;5060419;28;20453;-47
2021/07/16 06:08:18;;;;;;;21.13;17.20;;;19.60;89.80;;;;;;5089860;28;20458;-47
2021/07/16 06:10:44;;;;;;;20.70;16.67;;;19.60;89.80;;;;;;5057678;28;21038;-47
2021/07/16 06:13:11;;;;;;;24.23;16.97;;;19.60;89.80;;;;;;5062196;28;21033;-47
2021/07/16 06:15:38;;;;;;;21.47;17.40;;;19.70;89.80;;;;;;5054853;28;20462;-46
2021/07/16 06:18:05;;;;;;;21.63;18.40;;;19.70;89.80;;;;;;5061250;28;20560;-47
2021/07/16 06:20:33;;;;;;;26.03;19.17;;;19.70;89.80;;;;;;5056430;28;20478;-47
2021/07/16 06:23:00;;;;;;;22.47;19.37;;;19.80;89.80;;;;;;5085484;28;20487;-46
2021/07/16 06:25:27;;;;;;;25.67;18.23;;;19.80;89.80;;;;;;5086949;27;20451;-46
2021/07/16 06:27:54;;;;;;;25.60;19.80;;;19.80;89.80;;;;;;5061717;28;20714;-46
2021/07/16 06:30:21;;;;;;;33.37;20.43;;;19.80;89.80;;;;;;5061267;28;20462;-46
2021/07/16 06:32:47;;;;;;;27.40;20.27;;;19.90;89.80;;;;;;5063640;28;20454;-46
2021/07/16 06:35:14;;;;;;;30.37;21.73;;;19.90;89.80;;;;;;5060449;28;20565;-46
2021/07/16 06:37:41;;;;;;;26.43;20.17;;;19.90;89.80;;;;;;5059997;28;20477;-46
2021/07/16 06:40:09;;;;;;;29.27;21.63;;;19.90;89.80;;;;;;5058206;28;21019;-46
2021/07/16 06:42:36;;;;;;;29.20;19.90;;;19.90;89.80;;;;;;5058204;28;20442;-46
2021/07/16 06:45:04;;;;;;;36.73;22.23;;;19.90;89.80;;;;;;5090645;28;20464;-46
2021/07/16 06:47:31;;;;;;;30.07;22.60;;;19.90;89.80;;;;;;5061113;28;20471;-46
2021/07/16 06:49:58;;;;;;;29.07;20.70;;;19.90;89.80;;;;;;5058831;28;20504;-46
2021/07/16 06:52:31;;;;;;;27.17;19.00;;;19.90;89.80;;;;;;5060269;28;20454;-46
2021/07/16 06:54:57;;;;;;;31.60;20.83;;;19.90;89.80;;;;;;5058762;28;20484;-46
2021/07/16 06:57:24;;;;;;;29.60;20.40;;;19.90;89.80;;;;;;5087557;28;20451;-46
2021/07/16 06:59:51;;;;;;;28.23;21.17;;;19.90;89.80;;;;;;5055113;28;20464;-46
2021/07/16 07:02:18;;;;;;;29.93;22.10;;;19.90;89.80;;;;;;5058721;28;20998;-46
2021/07/16 07:04:45;;;;;;;26.63;20.40;;;20.00;89.80;;;;;;5057001;28;20481;-46
2021/07/16 07:07:11;;;;;;;31.03;21.47;;;20.00;89.80;;;;;;5061800;28;20481;-46
2021/07/16 07:09:38;;;;;;;30.60;21.57;;;20.00;89.80;;;;;;5059887;28;20457;-44
2021/07/16 07:12:05;;;;;;;29.40;22.20;;;20.00;89.80;;;;;;5081547;28;20460;-45
2021/07/16 07:14:32;;;;;;;30.80;22.50;;;20.10;89.80;;;;;;5064871;28;20454;-44
2021/07/16 07:16:59;;;;;;;30.70;21.30;;;20.20;89.80;;;;;;5061622;28;20501;-44
2021/07/16 07:19:26;;;;;;;24.67;19.77;;;20.20;89.80;;;;;;5061613;28;20771;-44
2021/07/16 07:21:56;;;;;;;28.00;20.50;;;20.20;89.80;;;;;;5060679;28;20546;-44
2021/07/16 07:24:23;;;;;;;34.83;20.90;;;20.30;89.80;;;;;;5058068;28;20453;-44
2021/07/16 07:26:54;;;;;;;27.37;19.43;;;20.30;89.80;;;;;;5063278;28;21037;-44
2021/07/16 07:29:21;;;;;;;28.00;21.20;;;20.30;89.80;;;;;;5060067;28;20458;-44
2021/07/16 07:31:48;;;;;;;26.53;19.67;;;20.30;89.80;;;;;;5058383;28;20466;-45
2021/07/16 07:34:15;;;;;;;24.97;18.87;;;20.30;89.80;;;;;;5062409;28;20474;-45
2021/07/16 07:36:47;;;;;;;30.17;20.80;;;20.30;89.80;;;;;;5063636;28;20451;-45
2021/07/16 07:39:14;;;;;;;25.80;19.07;;;20.30;89.80;;;;;;5057727;28;20458;-46
2021/07/16 07:41:45;;;;;;;26.70;17.40;;;20.40;89.80;;;;;;5055266;28;20517;-44
2021/07/16 07:44:17;;;;;;;26.83;16.13;;;20.40;89.80;;;;;;5058302;28;20452;-45
2021/07/16 07:46:44;;;;;;;22.17;16.57;;;20.40;89.80;;;;;;5057139;28;20458;-46
2021/07/16 07:49:13;;;;;;;23.03;16.30;;;20.40;89.80;;;;;;5064354;28;20538;-44
2021/07/16 07:51:41;;;;;;;24.57;17.53;;;20.40;89.80;;;;;;5055984;28;20449;-45
2021/07/16 07:54:09;;;;;;;20.60;16.47;;;20.40;89.80;;;;;;5061377;28;20618;-44
2021/07/16 07:56:37;;;;;;;21.57;16.80;;;20.40;89.80;;;;;;5061148;28;20864;-45
2021/07/16 07:59:05;;;;;;;23.37;17.00;;;20.40;89.80;;;;;;5058303;28;20466;-45
2021/07/16 08:01:34;;;;;;;22.27;15.67;;;20.40;89.80;;;;;;5059773;28;20500;-45
2021/07/16 08:04:02;;;;;;;20.63;15.50;;;20.50;89.80;;;;;;5065388;28;20478;-44
2021/07/16 08:06:29;;;;;;;21.00;16.20;;;20.50;89.80;;;;;;5060538;28;20450;-44
2021/07/16 08:08:57;;;;;;;25.83;16.20;;;20.60;89.80;;;;;;5087176;28;20450;-45
2021/07/16 08:11:24;;;;;;;18.60;16.00;;;20.60;89.80;;;;;;5085301;28;20466;-44
2021/07/16 08:13:51;;;;;;;21.13;16.27;;;20.70;89.80;;;;;;5058270;28;20465;-45
2021/07/16 08:16:18;;;;;;;21.30;15.57;;;20.70;89.80;;;;;;5064027;28;20516;-47
2021/07/16 08:18:45;;;;;;;22.87;15.83;;;20.80;89.60;;;;;;5060592;28;20897;-44
2021/07/16 08:21:12;;;;;;;21.10;15.50;;;20.80;89.40;;;;;;5064942;28;20516;-44
2021/07/16 08:23:38;;;;;;;22.43;15.60;;;20.80;89.40;;;;;;5057808;28;20454;-44
2021/07/16 08:26:05;;;;;;;17.80;14.20;;;20.90;89.70;;;;;;5058875;28;20455;-44
2021/07/16 08:28:32;;;;;;;18.63;14.27;;;21.00;89.70;;;;;;5063561;28;20446;-43
2021/07/16 08:30:59;;;;;;;18.10;14.00;;;21.10;88.70;;;;;;5055732;28;20560;-45
2021/07/16 08:33:26;;;;;;;18.20;14.43;;;21.20;88.30;;;;;;5058869;28;20906;-44
2021/07/16 08:35:53;;;;;;;22.80;15.27;;;21.30;87.90;;;;;;5064929;28;20459;-45
2021/07/16 08:38:20;;;;;;;20.10;13.73;;;21.40;87.50;;;;;;5058671;28;20469;-45
2021/07/16 08:40:46;;;;;;;17.07;13.67;;;21.60;87.60;;;;;;5082923;28;20486;-43
2021/07/16 08:43:17;;;;;;;16.47;12.70;;;21.70;86.60;;;;;;5060046;28;20441;-44
2021/07/16 08:45:51;;;;;;;17.33;12.80;;;21.70;86.20;;;;;;5056293;28;20469;-44
2021/07/16 08:48:20;;;;;;;16.13;11.90;;;21.80;85.90;;;;;;5061265;28;20510;-45
2021/07/16 08:50:49;;;;;;;14.50;11.90;;;21.80;86.00;;;;;;5062596;28;20454;-44
2021/07/16 08:53:17;;;;;;;16.73;12.53;;;21.80;85.50;;;;;;5087949;28;20445;-44
2021/07/16 08:55:44;;;;;;;15.87;12.33;;;21.90;83.80;;;;;;5073220;28;20493;-44
2021/07/16 08:58:11;;;;;;;12.77;11.47;;;22.00;84.10;;;;;;5057777;28;20814;-44
2021/07/16 09:00:38;;;;;;;13.93;11.93;;;22.00;83.80;;;;;;5089186;28;20460;-43
2021/07/16 09:03:05;;;;;;;13.80;11.17;;;22.00;83.60;;;;;;5058967;28;20454;-44
2021/07/16 09:05:40;;;;;;;15.30;12.27;;;22.10;82.80;;;;;;5062755;28;20484;-44
2021/07/16 09:08:27;;;;;;;13.60;11.80;;;22.10;83.10;;;;;;5055270;28;21015;-44
2021/07/16 09:10:58;;;;;;;12.20;10.83;;;22.20;83.10;;;;;;5062369;28;21445;-44
2021/07/16 09:13:26;;;;;;;14.10;11.60;;;22.20;82.30;;;;;;5092571;28;20454;-46
2021/07/16 09:15:59;;;;;;;14.63;11.03;;;22.20;82.80;;;;;;5057382;28;20552;-46
2021/07/16 09:18:29;;;;;;;14.70;10.60;;;22.20;82.50;;;;;;5068791;28;20559;-45
2021/07/16 09:21:01;;;;;;;14.40;11.53;;;22.20;82.20;;;;;;5064197;28;20493;-45
2021/07/16 09:23:44;;;;;;;14.13;10.60;;;22.30;82.30;;;;;;5062809;28;20458;-45
2021/07/16 09:26:26;;;;;;;14.53;9.90;;;22.30;82.10;;;;;;5061503;28;20452;-46
2021/07/16 09:28:56;;;;;;;10.50;9.17;;;22.30;82.20;;;;;;5062731;28;20453;-46
2021/07/16 09:31:25;;;;;;;10.47;8.57;;;22.30;82.20;;;;;;5088313;28;20532;-46
2021/07/16 09:33:58;;;;;;;11.70;9.63;;;22.30;81.10;;;;;;5064421;28;20458;-46
2021/07/16 09:36:28;;;;;;;10.73;9.63;;;22.40;81.40;;;;;;5059691;28;20457;-46
2021/07/16 09:39:03;;;;;;;14.03;10.27;;;22.40;81.60;;;;;;5062295;28;20914;-47
2021/07/16 09:41:30;;;;;;;14.00;10.87;;;22.50;82.00;;;;;;5090848;27;20843;-45
2021/07/16 09:44:03;;;;;;;12.37;10.87;;;22.60;81.40;;;;;;5065108;28;20646;-47
2021/07/16 09:46:36;;;;;;;15.63;9.47;;;22.70;81.00;;;;;;5088618;28;20444;-45
2021/07/16 09:49:13;;;;;;;14.17;10.60;;;22.80;80.30;;;;;;5062798;28;20491;-47
2021/07/16 09:51:42;;;;;;;10.87;8.87;;;22.90;80.10;;;;;;5065054;28;20456;-47
2021/07/16 09:54:13;;;;;;;11.77;10.57;;;22.90;79.50;;;;;;5066404;28;20838;-47
2021/07/16 09:56:40;;;;;;;12.40;10.13;;;22.90;79.20;;;;;;5059032;28;20461;-47
2021/07/16 09:59:17;;;;;;;13.87;10.53;;;22.80;79.50;;;;;;5063311;28;20461;-47
2021/07/16 10:01:47;;;;;;;11.23;9.60;;;22.80;79.80;;;;;;5060842;28;20485;-47
2021/07/16 10:04:17;;;;;;;14.97;10.13;;;22.90;80.20;;;;;;5088909;28;21020;-47
2021/07/16 10:06:51;;;;;;;10.90;9.43;;;22.90;80.00;;;;;;5056025;28;20457;-47
2021/07/16 10:09:22;;;;;;;10.10;9.10;;;23.00;79.80;;;;;;5064260;28;20518;-47
2021/07/16 10:11:58;;;;;;;9.83;8.70;;;23.10;79.70;;;;;;5061215;28;20465;-47
2021/07/16 10:14:25;;;;;;;11.67;9.33;;;23.10;78.40;;;;;;5062841;28;20544;-47
2021/07/16 10:16:53;;;;;;;12.27;10.07;;;23.10;78.70;;;;;;5062417;28;20453;-47
2021/07/16 10:19:22;;;;;;;11.20;9.17;;;23.10;79.10;;;;;;5060361;28;20485;-47
2021/07/16 10:21:49;;;;;;;13.00;11.23;;;23.00;79.00;;;;;;5056842;28;20563;-47
2021/07/16 10:24:23;;;;;;;10.97;9.70;;;23.00;79.80;;;;;;5063081;28;20842;-47
2021/07/16 10:27:05;;;;;;;11.63;9.30;;;23.00;79.40;;;;;;5057841;28;20457;-47
2021/07/16 10:29:37;;;;;;;10.50;8.43;;;23.00;78.90;;;;;;5060617;28;20942;-47
2021/07/16 10:32:09;;;;;;;10.07;9.10;;;23.00;78.90;;;;;;5055161;28;20490;-47
2021/07/16 10:34:40;;;;;;;9.07;8.10;;;22.90;78.80;;;;;;5060299;28;20465;-47
2021/07/16 10:37:14;;;;;;;9.97;8.13;;;22.90;79.10;;;;;;5058474;28;20508;-47
2021/07/16 10:39:55;;;;;;;9.50;8.60;;;22.90;79.20;;;;;;5060404;28;20468;-46
2021/07/16 10:42:31;;;;;;;9.53;8.53;;;22.80;79.30;;;;;;5058847;28;20583;-47
2021/07/16 10:45:00;;;;;;;9.87;8.00;;;22.90;79.70;;;;;;5060288;28;20951;-47
2021/07/16 10:47:41;;;;;;;9.40;8.40;;;22.90;79.10;;;;;;5090324;27;20458;-48
2021/07/16 10:50:12;;;;;;;11.17;8.80;;;23.00;78.50;;;;;;5060560;28;20461;-45
2021/07/16 10:52:43;;;;;;;10.40;8.73;;;23.00;78.10;;;;;;5057586;28;20996;-46
2021/07/16 10:55:11;;;;;;;9.40;8.33;;;23.00;78.40;;;;;;5061059;28;20463;-46
2021/07/16 10:57:42;;;;;;;9.70;8.13;;;23.10;77.70;;;;;;5059219;28;20445;-45
2021/07/16 11:00:33;;;;;;;10.20;8.40;;;23.20;76.60;;;;;;5056551;28;20454;-46
2021/07/16 11:03:10;;;;;;;7.87;7.07;;;23.40;75.90;;;;;;5056653;28;20490;-46
2021/07/16 11:05:42;;;;;;;9.40;6.93;;;23.50;76.10;;;;;;5061135;28;20531;-46
2021/07/16 11:08:35;;;;;;;8.83;7.77;;;23.60;76.20;;;;;;5067159;28;20453;-46
2021/07/16 11:11:06;;;;;;;9.57;7.23;;;23.70;75.20;;;;;;5060862;28;20835;-46
2021/07/16 11:13:46;;;;;;;9.20;8.03;;;23.80;74.90;;;;;;5087497;28;20457;-46
2021/07/16 11:16:15;;;;;;;8.00;7.20;;;23.80;75.10;;;;;;5087955;28;20462;-46
2021/07/16 11:19:08;;;;;;;8.63;7.47;;;23.80;74.70;;;;;;5059493;28;20487;-46
2021/07/16 11:21:41;;;;;;;7.90;7.10;;;23.80;74.20;;;;;;5061087;28;20485;-46
2021/07/16 11:24:20;;;;;;;7.87;7.10;;;23.70;74.90;;;;;;5059307;28;20465;-46
2021/07/16 11:26:49;;;;;;;7.70;7.00;;;23.70;74.50;;;;;;5061864;28;20452;-46
2021/07/16 11:29:20;;;;;;;8.50;7.60;;;23.60;74.80;;;;;;5060146;28;20476;-46
2021/07/16 11:31:47;;;;;;;8.07;7.10;;;23.60;75.10;;;;;;5056922;28;20458;-46
2021/07/16 11:34:17;;;;;;;9.10;7.70;;;23.60;75.00;;;;;;5058664;28;20450;-46
2021/07/16 11:36:51;;;;;;;7.67;6.87;;;23.50;75.30;;;;;;5061406;28;20450;-46
2021/07/16 11:39:27;;;;;;;6.90;6.30;;;23.50;74.80;;;;;;5060323;28;20807;-46
2021/07/16 11:41:53;;;;;;;7.57;6.87;;;23.50;74.50;;;;;;5056029;28;20480;-46
2021/07/16 11:44:43;;;;;;;7.10;6.40;;;23.40;75.20;;;;;;5058344;28;20935;-45
2021/07/16 11:47:24;;;;;;;7.57;6.80;;;23.40;75.90;;;;;;5065088;28;20524;-46
2021/07/16 11:49:54;;;;;;;8.63;6.97;;;23.40;75.70;;;;;;5058883;28;20836;-46
2021/07/16 11:52:24;;;;;;;9.37;7.83;;;23.30;75.90;;;;;;5060617;28;20466;-46
2021/07/16 11:54:54;;;;;;;7.93;6.13;;;23.30;75.80;;;;;;5062030;28;20539;-46
2021/07/16 11:57:21;;;;;;;6.60;5.80;;;23.20;75.90;;;;;;5058430;28;20465;-46
2021/07/16 11:59:50;;;;;;;8.50;6.90;;;23.30;75.20;;;;;;5057104;28;20492;-46
2021/07/16 12:02:18;;;;;;;7.10;6.23;;;23.40;76.10;;;;;;5059424;28;20570;-46
2021/07/16 12:04:48;;;;;;;6.60;6.00;;;23.50;75.20;;;;;;5063594;28;20458;-46
2021/07/16 12:07:16;;;;;;;7.57;6.80;;;23.60;74.30;;;;;;5060868;28;20462;-46
2021/07/16 12:09:45;;;;;;;7.67;6.47;;;23.70;73.50;;;;;;5065105;28;20442;-46
2021/07/16 12:12:20;;;;;;;7.70;6.80;;;23.80;73.20;;;;;;5063421;28;20504;-44
2021/07/16 12:14:51;;;;;;;7.20;6.50;;;23.90;73.80;;;;;;5057324;28;20849;-46
2021/07/16 12:17:27;;;;;;;6.07;5.50;;;23.90;73.80;;;;;;5057437;28;20512;-46
2021/07/16 12:19:56;;;;;;;8.47;7.03;;;24.00;73.90;;;;;;5059792;28;20456;-46
2021/07/16 12:22:31;;;;;;;8.03;6.33;;;24.20;74.20;;;;;;5059855;28;20484;-44
2021/07/16 12:25:00;;;;;;;6.30;5.50;;;24.30;71.80;;;;;;5082380;28;20453;-43
2021/07/16 12:27:27;;;;;;;7.07;6.40;;;24.50;72.70;;;;;;5059955;28;20461;-44
2021/07/16 12:30:03;;;;;;;6.63;6.03;;;24.60;71.70;;;;;;5057507;28;21004;-43
2021/07/16 12:32:32;;;;;;;6.90;6.20;;;24.70;70.40;;;;;;5057279;28;20462;-46
2021/07/16 12:34:58;;;;;;;7.47;6.77;;;24.70;70.60;;;;;;5059712;28;20461;-44
2021/07/16 12:37:36;;;;;;;6.40;5.80;;;24.70;71.10;;;;;;5054623;28;20483;-45
2021/07/16 12:40:05;;;;;;;6.77;6.07;;;24.90;70.80;;;;;;5062053;28;20472;-47
2021/07/16 12:42:35;;;;;;;9.80;5.87;;;25.00;71.60;;;;;;5061408;28;20481;-43
2021/07/16 12:45:10;;;;;;;8.30;5.57;;;25.10;70.40;;;;;;5058397;28;20459;-44